Time;durP1;ratioP1;P1;durP2;ratioP2;P2;SDS_P1;SDS_P2;PMS_P1;PMS_P2;Temp;Humidity;BMP_temperature;BMP_pressure;BME280_temperature;BME280_humidity;BME280_pressure;Samples;Min_cycle;Max_cycle;Signal;HPM_P1;HPM_P2
2021/12/22 00:01:54;;;;;;;0.40;0.20;;;-4.60;99.90;;;;;;5109889;28;20441;-73
2021/12/22 00:04:25;;;;;;;0.40;0.20;;;-4.70;99.90;;;;;;5112893;28;20467;-73
2021/12/22 00:06:52;;;;;;;0.50;0.50;;;-4.60;99.90;;;;;;5114525;28;20413;-73
2021/12/22 00:09:18;;;;;;;0.40;0.20;;;-4.60;99.90;;;;;;5115123;28;20386;-73
2021/12/22 00:11:44;;;;;;;0.40;0.20;;;-4.60;99.90;;;;;;5113879;28;20380;-73
2021/12/22 00:14:11;;;;;;;0.40;0.30;;;-4.50;99.90;;;;;;5114609;28;20391;-73
2021/12/22 00:16:37;;;;;;;0.40;0.30;;;-4.60;99.90;;;;;;5114531;28;20385;-73
2021/12/22 00:19:03;;;;;;;0.40;0.20;;;-4.50;99.90;;;;;;5114001;28;20400;-73
2021/12/22 00:21:29;;;;;;;0.40;0.20;;;-4.70;99.90;;;;;;5096413;28;20745;-73
2021/12/22 00:23:55;;;;;;;0.40;0.20;;;-4.60;99.90;;;;;;5113865;28;20471;-73
2021/12/22 00:26:21;;;;;;;0.40;0.20;;;-4.70;99.90;;;;;;5114418;28;20389;-73
2021/12/22 00:28:48;;;;;;;0.40;0.20;;;-4.80;99.90;;;;;;5114258;28;20858;-73
2021/12/22 00:31:15;;;;;;;0.40;0.30;;;-4.70;99.90;;;;;;5113916;28;20384;-74
2021/12/22 00:33:52;;;;;;;0.40;0.20;;;-4.80;99.90;;;;;;5103617;28;20386;-73
2021/12/22 00:36:21;;;;;;;0.40;0.28;;;-4.70;99.90;;;;;;5093695;28;20373;-73
2021/12/22 00:38:49;;;;;;;0.40;0.20;;;-4.70;99.90;;;;;;5093656;28;20425;-73
2021/12/22 00:41:14;;;;;;;0.40;0.30;;;-4.70;99.90;;;;;;5092953;28;20390;-73
2021/12/22 00:43:40;;;;;;;0.40;0.30;;;-4.70;99.90;;;;;;5075756;28;20890;-73
2021/12/22 00:46:07;;;;;;;0.40;0.20;;;-4.80;99.90;;;;;;5092735;28;20401;-74
2021/12/22 00:48:34;;;;;;;0.40;0.20;;;-4.90;99.90;;;;;;5094035;28;20413;-73
2021/12/22 00:51:01;;;;;;;0.40;0.20;;;-4.80;99.90;;;;;;5093918;28;20374;-73
2021/12/22 00:53:27;;;;;;;0.40;0.20;;;-4.80;99.90;;;;;;5092685;28;20385;-73
2021/12/22 00:55:53;;;;;;;0.40;0.20;;;-4.80;99.90;;;;;;5093713;28;20370;-73
2021/12/22 00:58:20;;;;;;;0.40;0.20;;;-4.90;99.90;;;;;;5074639;28;20406;-73
2021/12/22 01:00:47;;;;;;;0.40;0.30;;;-4.90;99.90;;;;;;5093539;28;20385;-73
2021/12/22 01:03:17;;;;;;;0.40;0.20;;;-5.10;99.90;;;;;;5092957;28;20386;-73
2021/12/22 01:05:44;;;;;;;0.40;0.20;;;-5.00;99.90;;;;;;5092747;28;20386;-73
2021/12/22 01:08:09;;;;;;;0.70;0.40;;;-5.00;99.90;;;;;;5075131;28;20736;-73
2021/12/22 01:10:35;;;;;;;0.40;0.20;;;-5.00;99.90;;;;;;5092550;28;20378;-73
2021/12/22 01:13:03;;;;;;;0.40;0.35;;;-5.00;99.90;;;;;;5093270;28;20381;-73
2021/12/22 01:15:29;;;;;;;0.40;0.30;;;-4.90;99.90;;;;;;5090998;28;20418;-73
2021/12/22 01:18:03;;;;;;;0.40;0.20;;;-4.80;99.90;;;;;;5093122;28;20474;-73
2021/12/22 01:20:35;;;;;;;0.40;0.30;;;-4.80;99.90;;;;;;5091945;28;20375;-73
2021/12/22 01:23:02;;;;;;;0.40;0.20;;;-4.40;99.90;;;;;;5093142;28;20431;-73
2021/12/22 01:25:31;;;;;;;0.50;0.50;;;-4.80;99.90;;;;;;5074118;28;20733;-73
2021/12/22 01:27:56;;;;;;;0.40;0.20;;;-4.80;99.90;;;;;;5074903;28;20392;-72
2021/12/22 01:30:26;;;;;;;0.40;0.30;;;-4.80;99.90;;;;;;5092793;28;20378;-73
2021/12/22 01:32:56;;;;;;;0.40;0.20;;;-4.90;99.90;;;;;;5092176;28;20406;-72
2021/12/22 01:35:25;;;;;;;0.40;0.20;;;-4.80;99.90;;;;;;5092945;28;20808;-73
2021/12/22 01:37:51;;;;;;;0.40;0.20;;;-4.70;99.90;;;;;;5091558;28;20421;-73
2021/12/22 01:40:18;;;;;;;0.40;0.20;;;-4.80;99.90;;;;;;5092497;28;20398;-72
2021/12/22 01:42:45;;;;;;;0.40;0.20;;;-4.80;99.90;;;;;;5092049;28;20736;-73
2021/12/22 01:45:27;;;;;;;0.40;0.30;;;-4.60;99.90;;;;;;5092652;28;20938;-73
2021/12/22 01:50:45;;;;;;;0.40;0.20;;;-4.90;99.90;;;;;;5092591;28;20389;-73
2021/12/22 01:53:23;;;;;;;0.40;0.20;;;-4.80;99.90;;;;;;5092783;28;20385;-72
2021/12/22 01:56:12;;;;;;;0.40;0.30;;;-4.80;99.90;;;;;;5073637;28;20949;-73
2021/12/22 01:58:42;;;;;;;0.40;0.30;;;-4.70;99.90;;;;;;5092211;28;20414;-73
2021/12/22 02:01:09;;;;;;;0.40;0.20;;;-4.80;99.90;;;;;;5091387;28;20393;-73
2021/12/22 02:03:36;;;;;;;0.40;0.30;;;-4.70;99.90;;;;;;5092385;28;20374;-73
2021/12/22 02:06:04;;;;;;;0.40;0.20;;;-4.70;99.90;;;;;;5091278;28;20846;-73
2021/12/22 02:08:30;;;;;;;0.40;0.20;;;-4.80;99.90;;;;;;5091945;28;20887;-73
2021/12/22 02:10:56;;;;;;;0.70;0.70;;;-4.80;99.90;;;;;;5091098;28;20374;-73
2021/12/22 02:13:28;;;;;;;0.40;0.30;;;-4.80;99.90;;;;;;5074000;28;20952;-73
2021/12/22 02:15:54;;;;;;;0.40;0.20;;;-4.90;99.90;;;;;;5091852;28;20435;-73
2021/12/22 02:18:20;;;;;;;0.40;0.20;;;-4.90;99.90;;;;;;5091406;28;20504;-73
2021/12/22 02:20:47;;;;;;;0.40;0.30;;;-4.90;99.90;;;;;;5091720;28;20879;-72
2021/12/22 02:23:13;;;;;;;0.40;0.20;;;-4.60;99.90;;;;;;5091051;28;20953;-73
2021/12/22 02:25:49;;;;;;;0.40;0.20;;;-4.70;99.90;;;;;;5092272;28;20417;-73
2021/12/22 02:28:21;;;;;;;0.40;0.20;;;-4.70;99.90;;;;;;5090697;28;20414;-73
2021/12/22 02:30:47;;;;;;;0.40;0.20;;;-4.70;99.90;;;;;;5092018;28;20378;-72
2021/12/22 02:33:22;;;;;;;0.40;0.40;;;-4.70;99.90;;;;;;5091131;28;20394;-73
2021/12/22 02:38:44;;;;;;;0.40;0.20;;;-4.60;99.90;;;;;;5091272;28;20406;-72
2021/12/22 02:41:13;;;;;;;0.40;0.40;;;-4.50;99.90;;;;;;5090811;28;20861;-73
2021/12/22 02:43:52;;;;;;;0.40;0.20;;;-4.70;99.90;;;;;;5091475;28;20389;-72
2021/12/22 02:46:31;;;;;;;0.70;0.70;;;-4.80;99.90;;;;;;5090837;28;20457;-72
2021/12/22 02:48:59;;;;;;;0.40;0.30;;;-4.70;99.90;;;;;;5091406;28;20860;-72
2021/12/22 02:51:28;;;;;;;0.40;0.30;;;-4.70;99.90;;;;;;5090391;28;20871;-73
2021/12/22 03:04:21;;;;;;;0.40;0.30;;;-4.80;99.90;;;;;;5091141;28;20705;-72
2021/12/22 03:07:23;;;;;;;0.60;0.50;;;-4.70;99.90;;;;;;5072346;28;20415;-72
2021/12/22 03:09:39;;;;;;;0.40;0.20;;;-4.70;99.90;;;;;;5087201;28;20740;-73
2021/12/22 03:12:09;;;;;;;0.40;0.20;;;-4.80;99.90;;;;;;5091023;28;20381;-72
2021/12/22 03:14:35;;;;;;;1.30;0.70;;;-4.80;99.90;;;;;;5091063;28;20390;-72
2021/12/22 03:17:01;;;;;;;0.40;0.20;;;-4.80;99.90;;;;;;5071902;28;20469;-72
2021/12/22 03:19:32;;;;;;;0.40;0.20;;;-4.70;99.90;;;;;;5090920;28;20406;-73
2021/12/22 03:22:04;;;;;;;0.40;0.20;;;-4.80;99.90;;;;;;5090032;28;20370;-73
2021/12/22 03:24:34;;;;;;;0.40;0.20;;;-4.80;99.90;;;;;;5072874;28;20504;-72
2021/12/22 03:27:02;;;;;;;0.40;0.20;;;-4.80;99.90;;;;;;5089963;28;20390;-73
2021/12/22 03:29:32;;;;;;;0.40;0.20;;;-4.70;99.90;;;;;;5090966;28;20402;-73
2021/12/22 03:31:59;;;;;;;0.40;0.20;;;-4.90;99.90;;;;;;5071955;28;20389;-73
2021/12/22 03:34:25;;;;;;;0.57;0.57;;;-4.80;99.90;;;;;;5107626;28;20420;-73
2021/12/22 03:36:52;;;;;;;0.40;0.20;;;-4.90;99.90;;;;;;5111104;28;20392;-73
2021/12/22 03:39:17;;;;;;;0.40;0.20;;;-4.90;99.90;;;;;;5109660;28;20796;-73
2021/12/22 03:41:45;;;;;;;0.40;0.20;;;-4.90;99.90;;;;;;5111317;28;20809;-73
2021/12/22 03:44:11;;;;;;;0.40;0.20;;;-4.90;99.90;;;;;;5110119;28;20475;-73
2021/12/22 03:46:38;;;;;;;0.40;0.20;;;-4.90;99.90;;;;;;5093126;28;20429;-73
2021/12/22 03:49:09;;;;;;;0.40;0.20;;;-5.00;99.90;;;;;;5110575;28;20436;-73
2021/12/22 03:51:36;;;;;;;0.40;0.30;;;-4.90;99.90;;;;;;5109867;28;20580;-73
2021/12/22 03:54:03;;;;;;;0.40;0.28;;;-5.00;99.90;;;;;;5110532;28;20391;-73
2021/12/22 03:56:29;;;;;;;0.40;0.22;;;-5.00;99.90;;;;;;5110142;28;20384;-73
2021/12/22 03:58:55;;;;;;;0.40;0.20;;;-5.00;99.90;;;;;;5110404;28;20778;-73
2021/12/22 04:01:20;;;;;;;0.40;0.20;;;-5.10;99.90;;;;;;5110890;28;20403;-73
2021/12/22 04:03:50;;;;;;;0.40;0.30;;;-5.00;99.90;;;;;;5109994;28;20383;-73
2021/12/22 04:06:15;;;;;;;0.40;0.30;;;-5.00;99.90;;;;;;5110820;28;20475;-73
2021/12/22 04:08:41;;;;;;;0.40;0.20;;;-5.10;99.90;;;;;;5091736;28;20488;-73
2021/12/22 04:11:07;;;;;;;0.40;0.20;;;-5.20;99.90;;;;;;5076027;28;20395;-73
2021/12/22 04:13:33;;;;;;;0.40;0.20;;;-5.20;99.90;;;;;;5110879;28;20371;-75
2021/12/22 04:15:59;;;;;;;0.40;0.20;;;-5.10;99.90;;;;;;5111092;28;20711;-73
2021/12/22 04:18:25;;;;;;;0.40;0.30;;;-5.20;99.90;;;;;;5092047;28;20400;-73
2021/12/22 04:20:50;;;;;;;0.40;0.20;;;-5.20;99.90;;;;;;5109591;28;20901;-73
2021/12/22 04:23:16;;;;;;;0.40;0.20;;;-5.20;99.90;;;;;;5110517;28;20380;-74
2021/12/22 04:25:43;;;;;;;0.40;0.20;;;-5.30;99.90;;;;;;5092037;28;20405;-73
2021/12/22 04:28:10;;;;;;;0.40;0.20;;;-5.20;99.90;;;;;;5109704;28;20388;-74
2021/12/22 04:30:41;;;;;;;0.40;0.20;;;-5.30;99.90;;;;;;5110830;28;20444;-74
2021/12/22 04:33:08;;;;;;;0.40;0.20;;;-5.30;99.90;;;;;;5103854;28;20483;-74
2021/12/22 04:35:35;;;;;;;0.40;0.20;;;-5.40;99.90;;;;;;5089769;28;20414;-73
2021/12/22 04:38:01;;;;;;;0.40;0.20;;;-5.30;99.90;;;;;;5054541;28;20896;-73
2021/12/22 04:40:27;;;;;;;0.40;0.20;;;-5.30;99.90;;;;;;5090010;28;20461;-73
2021/12/22 04:42:53;;;;;;;0.40;0.20;;;-5.30;99.90;;;;;;5089571;28;20469;-73
2021/12/22 04:45:19;;;;;;;0.40;0.20;;;-5.30;99.90;;;;;;5071012;28;20394;-74
2021/12/22 04:47:47;;;;;;;0.40;0.30;;;-5.30;99.90;;;;;;5090350;28;20390;-74
2021/12/22 04:50:16;;;;;;;0.40;0.20;;;-5.30;99.90;;;;;;5090822;28;20417;-74
2021/12/22 04:53:07;;;;;;;0.40;0.30;;;-5.30;99.90;;;;;;5094109;28;20447;-74
2021/12/22 04:55:33;;;;;;;0.40;0.20;;;-5.20;99.90;;;;;;5092506;28;20409;-74
2021/12/22 04:57:59;;;;;;;0.40;0.20;;;-5.10;99.90;;;;;;5075433;28;20465;-74
2021/12/22 05:00:28;;;;;;;0.40;0.30;;;-5.10;99.90;;;;;;5092415;28;20388;-74
2021/12/22 05:02:55;;;;;;;0.40;0.20;;;-5.00;99.90;;;;;;5075800;28;20760;-74
2021/12/22 05:05:21;;;;;;;0.40;0.20;;;-5.10;99.90;;;;;;5092671;28;20390;-74
2021/12/22 05:07:47;;;;;;;0.40;0.20;;;-5.00;99.90;;;;;;5093298;28;20862;-73
2021/12/22 05:10:15;;;;;;;0.40;0.20;;;-4.90;99.90;;;;;;5093360;28;20378;-73
2021/12/22 05:12:41;;;;;;;0.40;0.20;;;-4.90;99.90;;;;;;5092789;28;20374;-73
2021/12/22 05:15:08;;;;;;;0.60;0.60;;;-5.00;99.90;;;;;;5093482;28;20374;-73
2021/12/22 05:20:13;;;;;;;0.40;0.20;;;-5.00;99.90;;;;;;5093526;28;20426;-73
2021/12/22 05:22:39;;;;;;;0.40;0.25;;;-5.10;99.90;;;;;;5074683;28;20450;-73
2021/12/22 05:25:06;;;;;;;0.40;0.20;;;-5.00;99.90;;;;;;5093622;28;20748;-74
2021/12/22 05:27:32;;;;;;;0.40;0.20;;;-5.00;99.90;;;;;;5092926;28;20374;-74
2021/12/22 05:29:59;;;;;;;0.40;0.20;;;-5.10;99.90;;;;;;5091946;28;20455;-74
2021/12/22 05:32:30;;;;;;;0.40;0.30;;;-5.10;99.90;;;;;;5075300;28;20462;-74
2021/12/22 05:34:57;;;;;;;0.40;0.20;;;-4.90;99.90;;;;;;5092243;28;20508;-74
2021/12/22 05:37:23;;;;;;;0.40;0.20;;;-4.90;99.90;;;;;;5074453;28;20397;-73
2021/12/22 05:39:48;;;;;;;0.40;0.20;;;-4.90;99.90;;;;;;5093375;28;20378;-73
2021/12/22 05:42:14;;;;;;;0.40;0.20;;;-5.10;99.90;;;;;;5073781;28;20374;-73
2021/12/22 05:44:41;;;;;;;0.40;0.30;;;-5.20;99.90;;;;;;5074587;28;20398;-73
2021/12/22 05:47:07;;;;;;;0.40;0.28;;;-5.20;99.90;;;;;;5102757;28;20368;-73
2021/12/22 05:49:32;;;;;;;0.40;0.30;;;-5.30;99.90;;;;;;5111523;28;20751;-73
2021/12/22 05:51:58;;;;;;;0.40;0.30;;;-5.10;99.90;;;;;;5112044;28;20384;-73
2021/12/22 05:54:24;;;;;;;0.40;0.20;;;-5.10;99.90;;;;;;5112111;28;20388;-73
2021/12/22 05:56:49;;;;;;;0.40;0.20;;;-5.10;99.90;;;;;;5112714;28;20384;-73
2021/12/22 05:59:15;;;;;;;0.40;0.20;;;-5.30;99.90;;;;;;5111633;28;20404;-73
2021/12/22 06:01:41;;;;;;;0.40;0.20;;;-5.20;99.90;;;;;;5112137;28;20376;-73
2021/12/22 06:04:07;;;;;;;0.40;0.20;;;-5.20;99.90;;;;;;5112579;28;20421;-73
2021/12/22 06:06:33;;;;;;;0.40;0.20;;;-5.10;99.90;;;;;;5111954;28;20379;-73
2021/12/22 06:08:58;;;;;;;0.40;0.20;;;-5.10;99.90;;;;;;5093914;28;20388;-73
2021/12/22 06:11:24;;;;;;;0.40;0.20;;;-5.00;99.90;;;;;;5112142;28;20384;-73
2021/12/22 06:13:50;;;;;;;0.40;0.20;;;-5.20;99.90;;;;;;5112144;28;20412;-73
2021/12/22 06:16:16;;;;;;;0.40;0.20;;;-5.10;99.90;;;;;;5112602;28;20376;-73
2021/12/22 06:18:44;;;;;;;0.40;0.20;;;-5.20;99.90;;;;;;5111608;28;20901;-72
2021/12/22 06:21:12;;;;;;;0.40;0.20;;;-5.10;99.90;;;;;;5094165;28;20392;-73
2021/12/22 06:23:37;;;;;;;0.40;0.20;;;-5.10;99.90;;;;;;5093365;28;20397;-73
2021/12/22 06:26:03;;;;;;;0.40;0.20;;;-5.20;99.90;;;;;;5093928;28;20391;-73
2021/12/22 06:28:29;;;;;;;0.40;0.20;;;-5.30;99.90;;;;;;5112007;28;20863;-73
2021/12/22 06:30:55;;;;;;;0.40;0.20;;;-5.20;99.90;;;;;;5111271;28;20452;-74
2021/12/22 06:33:21;;;;;;;0.40;0.40;;;-5.20;99.90;;;;;;5104395;28;20382;-75
2021/12/22 06:35:48;;;;;;;0.40;0.20;;;-5.20;99.90;;;;;;5091062;28;20913;-75
2021/12/22 06:38:14;;;;;;;0.40;0.40;;;-5.20;99.90;;;;;;5091416;28;20882;-75
2021/12/22 06:40:40;;;;;;;0.40;0.20;;;-5.10;99.90;;;;;;5091598;28;20404;-75
2021/12/22 06:43:06;;;;;;;0.40;0.30;;;-5.20;99.90;;;;;;5091288;28;20614;-74
2021/12/22 06:45:32;;;;;;;1.00;1.00;;;-5.30;99.90;;;;;;5091872;28;20385;-74
2021/12/22 06:47:58;;;;;;;0.40;0.20;;;-5.30;99.90;;;;;;5072402;28;20686;-75
2021/12/22 06:50:23;;;;;;;0.40;0.20;;;-5.20;99.90;;;;;;5073136;28;20386;-74
2021/12/22 06:52:49;;;;;;;0.40;0.20;;;-5.20;99.90;;;;;;5091550;28;20374;-75
2021/12/22 06:55:15;;;;;;;0.40;0.20;;;-5.30;99.90;;;;;;5089763;28;20998;-75
2021/12/22 06:57:41;;;;;;;0.40;0.20;;;-5.30;99.90;;;;;;5090894;28;20428;-75
2021/12/22 07:00:09;;;;;;;0.40;0.20;;;-5.20;99.90;;;;;;5090191;28;20447;-75
2021/12/22 07:02:37;;;;;;;0.40;0.20;;;-5.30;99.90;;;;;;5091468;28;20385;-75
2021/12/22 07:05:09;;;;;;;0.40;0.20;;;-5.40;99.90;;;;;;5090917;28;20382;-75
2021/12/22 07:07:35;;;;;;;0.40;0.20;;;-5.50;99.90;;;;;;5087071;28;20374;-75
2021/12/22 07:10:02;;;;;;;0.40;0.20;;;-5.30;99.90;;;;;;5091249;28;20385;-75
2021/12/22 07:12:28;;;;;;;0.40;0.20;;;-5.30;99.90;;;;;;5090271;28;20378;-74
2021/12/22 07:14:54;;;;;;;0.40;0.30;;;-5.30;99.90;;;;;;5090103;28;20481;-74
2021/12/22 07:17:20;;;;;;;1.10;0.70;;;-5.30;99.90;;;;;;5090401;28;20425;-74
2021/12/22 07:19:46;;;;;;;0.40;0.20;;;-4.80;99.90;;;;;;5090754;28;20445;-75
2021/12/22 07:22:12;;;;;;;0.40;0.20;;;-5.40;99.90;;;;;;5091508;28;20436;-75
2021/12/22 07:24:37;;;;;;;0.40;0.30;;;-5.40;99.90;;;;;;5089889;28;20428;-75
2021/12/22 07:27:03;;;;;;;0.40;0.20;;;-5.30;99.90;;;;;;5091107;28;20444;-76
2021/12/22 07:29:29;;;;;;;0.40;0.20;;;-5.20;99.90;;;;;;5089482;28;20401;-74
2021/12/22 07:31:55;;;;;;;0.40;0.20;;;-5.10;99.90;;;;;;5072436;28;20386;-74
2021/12/22 07:34:28;;;;;;;0.40;0.20;;;-5.00;99.90;;;;;;5106676;28;20898;-74
2021/12/22 07:37:03;;;;;;;0.40;0.20;;;-5.10;99.90;;;;;;5111276;28;20372;-74
2021/12/22 07:39:29;;;;;;;0.40;0.25;;;-5.30;99.90;;;;;;5110975;28;20404;-74
2021/12/22 07:41:55;;;;;;;0.40;0.20;;;-5.20;99.90;;;;;;5092209;28;20429;-74
2021/12/22 07:44:21;;;;;;;0.40;0.20;;;-5.30;99.90;;;;;;5110867;28;20772;-74
2021/12/22 07:46:47;;;;;;;0.40;0.20;;;-5.20;99.90;;;;;;5110631;28;20574;-75
2021/12/22 07:49:13;;;;;;;0.40;0.20;;;-5.20;99.90;;;;;;5111156;28;20475;-74
2021/12/22 07:51:38;;;;;;;0.40;0.20;;;-5.10;99.90;;;;;;5111020;28;20408;-75
2021/12/22 07:54:04;;;;;;;0.40;0.20;;;-5.10;99.90;;;;;;5110990;28;20861;-75
2021/12/22 07:56:30;;;;;;;0.40;0.20;;;-5.10;99.90;;;;;;5110954;28;20387;-75
2021/12/22 07:58:56;;;;;;;0.40;0.20;;;-5.00;99.90;;;;;;5109732;28;20404;-75
2021/12/22 08:01:21;;;;;;;0.43;0.38;;;-5.00;99.90;;;;;;5110933;28;20369;-75
2021/12/22 08:03:47;;;;;;;0.40;0.20;;;-5.10;99.90;;;;;;5109751;28;20387;-75
2021/12/22 08:06:14;;;;;;;0.40;0.20;;;-4.90;99.90;;;;;;5110590;28;20385;-75
2021/12/22 08:08:40;;;;;;;0.40;0.20;;;-5.00;99.90;;;;;;5092597;28;20441;-75
2021/12/22 08:11:06;;;;;;;0.40;0.20;;;-4.90;99.90;;;;;;5110325;28;20857;-75
2021/12/22 08:13:32;;;;;;;0.40;0.20;;;-4.80;99.90;;;;;;5092757;28;20380;-75
2021/12/22 08:15:58;;;;;;;0.40;0.20;;;-4.70;99.90;;;;;;5109951;28;20377;-75
2021/12/22 08:18:24;;;;;;;0.40;0.20;;;-4.60;99.90;;;;;;5110761;28;20788;-75
2021/12/22 08:20:51;;;;;;;0.90;0.90;;;-4.60;99.90;;;;;;5110674;28;20433;-75
2021/12/22 08:23:19;;;;;;;0.40;0.20;;;-4.50;99.90;;;;;;5110374;28;20394;-74
2021/12/22 08:25:46;;;;;;;0.40;0.20;;;-4.40;99.90;;;;;;5113162;28;20384;-74
2021/12/22 08:28:12;;;;;;;0.40;0.28;;;-4.50;99.90;;;;;;5113612;28;20400;-74
2021/12/22 08:30:38;;;;;;;0.40;0.20;;;-4.40;99.90;;;;;;5096306;28;20449;-74
2021/12/22 08:33:09;;;;;;;0.40;0.20;;;-4.30;99.90;;;;;;5108263;28;20386;-75
2021/12/22 08:38:50;;;;;;;0.40;0.20;;;-4.20;99.90;;;;;;5076462;28;20935;-75
2021/12/22 08:41:09;;;;;;;0.40;0.20;;;-4.00;99.90;;;;;;5093200;28;20439;-76
2021/12/22 08:43:35;;;;;;;0.40;0.20;;;-4.10;99.90;;;;;;5093699;28;20381;-75
2021/12/22 08:46:01;;;;;;;0.40;0.30;;;-4.20;99.90;;;;;;5075196;28;20378;-75
2021/12/22 08:48:26;;;;;;;0.40;0.20;;;-4.20;99.90;;;;;;5074820;28;20394;-74
2021/12/22 08:50:52;;;;;;;0.40;0.40;;;-4.10;99.90;;;;;;5093612;28;20415;-74
2021/12/22 08:53:18;;;;;;;0.40;0.20;;;-3.90;99.90;;;;;;5092985;28;20386;-75
2021/12/22 08:55:44;;;;;;;0.40;0.30;;;-3.90;99.90;;;;;;5075965;28;20526;-75
2021/12/22 08:58:09;;;;;;;0.40;0.20;;;-3.80;99.90;;;;;;5075340;28;20496;-74
2021/12/22 09:00:38;;;;;;;0.40;0.20;;;-3.60;99.90;;;;;;5073868;28;20756;-74
2021/12/22 09:03:04;;;;;;;0.40;0.30;;;-3.50;99.90;;;;;;5093533;28;20378;-74
2021/12/22 09:05:32;;;;;;;0.40;0.20;;;-3.40;99.90;;;;;;5092831;28;20382;-74
2021/12/22 09:07:58;;;;;;;0.40;0.20;;;-3.30;99.90;;;;;;5074736;28;20386;-76
2021/12/22 09:10:24;;;;;;;0.40;0.20;;;-3.10;99.90;;;;;;5092168;28;20397;-76
2021/12/22 09:12:50;;;;;;;0.40;0.20;;;-3.10;99.90;;;;;;5093576;28;20413;-74
2021/12/22 09:15:17;;;;;;;0.40;0.30;;;-3.00;99.90;;;;;;5093216;28;20386;-74
2021/12/22 09:17:43;;;;;;;0.40;0.30;;;-3.00;99.90;;;;;;5092169;28;20390;-74
2021/12/22 09:20:10;;;;;;;0.90;0.80;;;-3.00;99.90;;;;;;5093541;28;20383;-74
2021/12/22 09:22:39;;;;;;;0.40;0.20;;;-3.10;99.90;;;;;;5092248;28;20392;-75
2021/12/22 09:25:05;;;;;;;0.40;0.20;;;-3.20;99.90;;;;;;5074916;28;20896;-75
2021/12/22 09:27:31;;;;;;;0.40;0.20;;;-3.20;99.90;;;;;;5074708;28;20422;-74
2021/12/22 09:29:57;;;;;;;0.40;0.40;;;-3.10;99.90;;;;;;5092294;28;20451;-74
2021/12/22 09:32:23;;;;;;;0.40;0.30;;;-2.90;99.90;;;;;;5093615;28;20386;-74
2021/12/22 09:34:52;;;;;;;0.40;0.28;;;-2.90;99.90;;;;;;5092427;28;20724;-74
2021/12/22 09:37:19;;;;;;;0.40;0.20;;;-2.90;99.90;;;;;;5073847;28;20394;-76
2021/12/22 09:39:44;;;;;;;0.40;0.20;;;-2.80;99.90;;;;;;5091801;28;20442;-76
2021/12/22 09:42:10;;;;;;;0.60;0.50;;;-2.80;99.90;;;;;;5092888;28;20899;-75
2021/12/22 09:44:47;;;;;;;1.35;0.65;;;-2.80;99.90;;;;;;5092826;28;20879;-76
2021/12/22 09:47:24;;;;;;;0.40;0.30;;;-2.70;99.90;;;;;;5092661;28;20864;-75
2021/12/22 09:52:27;;;;;;;0.40;0.30;;;-2.80;99.90;;;;;;5092681;28;20430;-75
2021/12/22 09:54:55;;;;;;;0.40;0.20;;;-2.70;99.90;;;;;;5091530;28;20536;-75
2021/12/22 09:57:23;;;;;;;0.40;0.30;;;-2.60;99.90;;;;;;5092339;28;20385;-75
2021/12/22 09:59:51;;;;;;;0.50;0.50;;;-2.40;99.90;;;;;;5074119;28;20808;-75
2021/12/22 10:02:20;;;;;;;0.40;0.20;;;-2.50;99.90;;;;;;5092347;28;20785;-75
2021/12/22 10:04:46;;;;;;;0.40;0.30;;;-2.30;99.90;;;;;;5092253;28;20860;-75
2021/12/22 10:07:20;;;;;;;2.20;0.90;;;-2.20;99.90;;;;;;5073345;28;20374;-75
2021/12/22 10:09:47;;;;;;;0.40;0.20;;;-2.30;99.90;;;;;;5092478;28;20389;-75
2021/12/22 10:12:18;;;;;;;0.40;0.20;;;-2.20;99.90;;;;;;5090753;28;20382;-75
2021/12/22 10:14:50;;;;;;;0.60;0.60;;;-2.20;99.90;;;;;;5074108;28;20382;-75
2021/12/22 10:17:33;;;;;;;0.40;0.20;;;-2.00;99.90;;;;;;5091376;28;20440;-75
2021/12/22 10:20:02;;;;;;;1.60;0.95;;;-2.00;99.90;;;;;;5092230;28;20916;-76
2021/12/22 10:22:33;;;;;;;0.40;0.20;;;-2.00;99.90;;;;;;5091895;28;20535;-77
2021/12/22 10:25:10;;;;;;;0.40;0.20;;;-2.00;99.90;;;;;;5092080;28;20443;-76
2021/12/22 10:27:37;;;;;;;0.80;0.80;;;-1.80;99.90;;;;;;5074232;28;20447;-76
2021/12/22 10:30:22;;;;;;;0.40;0.30;;;-1.70;99.90;;;;;;5091613;28;20416;-76
2021/12/22 10:32:48;;;;;;;0.40;0.27;;;-1.60;99.90;;;;;;5076804;28;20416;-77
2021/12/22 10:35:14;;;;;;;0.40;0.30;;;-1.40;99.90;;;;;;5111524;28;20376;-76
2021/12/22 10:37:44;;;;;;;1.00;0.90;;;-1.20;99.90;;;;;;5111865;28;20534;-77
2021/12/22 10:40:30;;;;;;;0.40;0.30;;;-1.20;99.90;;;;;;5093679;28;20391;-77
2021/12/22 10:42:57;;;;;;;0.40;0.20;;;-1.20;99.90;;;;;;5112136;28;20384;-77
2021/12/22 10:45:24;;;;;;;0.40;0.30;;;-1.10;99.90;;;;;;5111120;28;20878;-77
2021/12/22 10:50:41;;;;;;;0.40;0.20;;;-1.00;99.90;;;;;;5111092;28;20500;-77
2021/12/22 10:53:09;;;;;;;0.40;0.20;;;-0.80;99.90;;;;;;5112233;28;20379;-77
2021/12/22 10:55:39;;;;;;;0.50;0.50;;;-0.70;99.90;;;;;;5110727;28;20738;-77
2021/12/22 10:58:34;;;;;;;0.40;0.20;;;-0.60;99.90;;;;;;5111690;28;20419;-78
2021/12/22 11:01:04;;;;;;;0.40;0.20;;;-0.30;99.90;;;;;;5094463;28;20408;-77
2021/12/22 11:03:38;;;;;;;0.80;0.60;;;-0.30;99.90;;;;;;5111518;28;20380;-77
2021/12/22 11:06:30;;;;;;;0.40;0.40;;;-0.30;99.90;;;;;;5111764;28;20380;-77
2021/12/22 11:09:13;;;;;;;0.40;0.20;;;-0.20;99.90;;;;;;5110310;28;20855;-77
2021/12/22 11:11:44;;;;;;;0.80;0.80;;;0.00;99.90;;;;;;5111124;28;20491;-78
2021/12/22 11:14:13;;;;;;;0.40;0.40;;;0.20;99.90;;;;;;5093352;28;20464;-78
2021/12/22 11:16:52;;;;;;;0.40;0.30;;;0.70;99.90;;;;;;5093277;28;20415;-78
2021/12/22 11:19:18;;;;;;;0.40;0.20;;;1.00;99.90;;;;;;5111580;28;20951;-79
2021/12/22 11:21:59;;;;;;;0.40;0.20;;;1.70;99.90;;;;;;5110283;28;20421;-77
2021/12/22 11:24:30;;;;;;;0.40;0.22;;;1.80;98.10;;;;;;5092754;28;20396;-79
2021/12/22 11:26:57;;;;;;;0.40;0.25;;;1.60;98.70;;;;;;5110332;28;20399;-78
2021/12/22 11:29:24;;;;;;;0.40;0.20;;;2.10;99.30;;;;;;5111496;28;20400;-80
2021/12/22 11:31:51;;;;;;;0.40;0.20;;;2.30;98.20;;;;;;5111191;28;20729;-80
2021/12/22 11:34:18;;;;;;;0.40;0.20;;;2.90;97.10;;;;;;5094555;28;20386;-79
2021/12/22 11:36:46;;;;;;;0.40;0.30;;;3.10;94.70;;;;;;5090874;28;20374;-79
2021/12/22 11:39:12;;;;;;;0.40;0.20;;;2.50;93.10;;;;;;5054940;28;20410;-79
2021/12/22 11:41:43;;;;;;;0.40;0.20;;;2.60;92.60;;;;;;5090798;28;20382;-80
2021/12/22 11:44:10;;;;;;;0.40;0.30;;;1.90;92.80;;;;;;5090060;28;20373;-79
2021/12/22 11:46:37;;;;;;;0.40;0.30;;;1.80;93.70;;;;;;5090907;28;20490;-79
2021/12/22 11:49:04;;;;;;;0.40;0.20;;;1.30;95.90;;;;;;5090916;28;20466;-79
2021/12/22 11:51:34;;;;;;;0.40;0.20;;;1.60;96.00;;;;;;5072033;28;20386;-79
2021/12/22 11:54:05;;;;;;;0.77;0.50;;;1.70;94.70;;;;;;5090805;28;20786;-80
2021/12/22 11:56:44;;;;;;;0.40;0.20;;;2.30;93.30;;;;;;5090246;28;21146;-80
2021/12/22 11:59:33;;;;;;;0.40;0.30;;;2.80;93.70;;;;;;5072099;28;20967;-80
2021/12/22 12:02:32;;;;;;;0.40;0.30;;;3.00;91.60;;;;;;5076790;28;20465;-81
2021/12/22 12:05:13;;;;;;;0.40;0.30;;;2.70;91.20;;;;;;5043712;28;20819;-80
2021/12/22 12:07:46;;;;;;;0.40;0.20;;;2.90;91.80;;;;;;5075858;28;20465;-80
2021/12/22 12:10:31;;;;;;;0.40;0.20;;;3.30;90.50;;;;;;5076492;28;20391;-80
2021/12/22 12:13:04;;;;;;;0.40;0.20;;;3.30;90.20;;;;;;5094618;28;20802;-80
2021/12/22 12:21:37;;;;;;;0.40;0.30;;;3.30;89.10;;;;;;5075819;28;20887;-80
2021/12/22 12:22:30;;;;;;;0.40;0.20;;;4.10;91.40;;;;;;5093507;28;20439;-80
2021/12/22 12:25:07;;;;;;;0.40;0.20;;;3.60;91.10;;;;;;5094221;28;20397;-81
2021/12/22 12:27:43;;;;;;;0.40;0.20;;;2.90;92.70;;;;;;5093902;28;20382;-77
2021/12/22 12:30:20;;;;;;;0.40;0.30;;;2.20;93.80;;;;;;5094869;28;20386;-81
2021/12/22 12:32:45;;;;;;;0.40;0.30;;;2.20;95.30;;;;;;5075363;28;20405;-80
2021/12/22 12:35:23;;;;;;;0.40;0.20;;;1.30;96.20;;;;;;5076165;28;20856;-80
2021/12/22 12:38:16;;;;;;;0.40;0.30;;;1.10;99.30;;;;;;5093536;28;20394;-80
2021/12/22 12:41:00;;;;;;;0.40;0.40;;;0.90;99.90;;;;;;5093760;28;20393;-79
2021/12/22 12:43:42;;;;;;;0.40;0.30;;;0.90;99.90;;;;;;5076497;28;20384;-80
2021/12/22 12:49:15;;;;;;;0.47;0.40;;;0.70;99.90;;;;;;5083052;28;20398;-79
2021/12/22 12:51:46;;;;;;;0.40;0.20;;;0.80;99.90;;;;;;5101441;28;20416;-80
2021/12/22 12:54:20;;;;;;;0.40;0.20;;;0.70;99.90;;;;;;5080671;28;20446;-80
2021/12/22 12:56:57;;;;;;;0.40;0.30;;;0.80;99.90;;;;;;5076259;28;20774;-80
2021/12/22 12:59:38;;;;;;;0.40;0.40;;;0.70;99.90;;;;;;5094068;28;20499;-80
2021/12/22 13:02:10;;;;;;;0.40;0.20;;;0.80;99.90;;;;;;5075213;28;20480;-81
2021/12/22 13:04:38;;;;;;;0.40;0.30;;;0.70;99.90;;;;;;5093868;28;20414;-81
2021/12/22 13:07:07;;;;;;;0.40;0.20;;;1.00;99.90;;;;;;5093093;28;20386;-79
2021/12/22 13:09:40;;;;;;;0.40;0.30;;;0.80;99.90;;;;;;5093724;28;20386;-80
2021/12/22 13:12:17;;;;;;;0.50;0.50;;;0.70;99.90;;;;;;5092926;28;20382;-79
2021/12/22 13:17:34;;;;;;;0.40;0.30;;;0.70;99.90;;;;;;5093430;28;20428;-80
2021/12/22 13:19:59;;;;;;;0.40;0.30;;;0.80;99.90;;;;;;5075417;28;20764;-79
2021/12/22 13:22:29;;;;;;;0.80;0.60;;;0.70;99.90;;;;;;5092800;28;20382;-79
2021/12/22 13:25:09;;;;;;;0.40;0.20;;;0.70;99.90;;;;;;5095626;28;20497;-82
2021/12/22 13:27:36;;;;;;;0.40;0.20;;;0.70;99.90;;;;;;5107781;28;20850;-81
2021/12/22 13:30:13;;;;;;;0.40;0.20;;;0.70;99.90;;;;;;5101910;28;20431;-81
2021/12/22 13:33:06;;;;;;;0.40;0.20;;;0.70;99.90;;;;;;5095680;28;20393;-80
2021/12/22 13:35:45;;;;;;;0.40;0.20;;;0.40;99.90;;;;;;5114057;28;20396;-80